CheckWX is a tool to help pilots better visualize weather data.  It is not intended as a substitute for an official pre-flight weather briefing.

12:25:54 UTC

PAPG METAR
Petersburg James A Johnson Airport
Petersburg, Alaska, USA
Current

30 mins ago

PAPG 271156Z AUTO 00000KT 10SM CLR 13/11 A2994 RMK AO2 SLP143 7//// T01280111 10189 20122 53004
Observed
Jun-27 @ 11:56 UTC
Visibility
10 SM
Flight Rules
VFR
Cloud Levels
  • Clear skies
Temperature
13°C / 55°F
Dewpoint
11°C / 52°F
Humidity
88%
Altimeter
29.94" Hg
Pressure
1013.92 hPa
Previous

1 hour ago

PAPG 271056Z AUTO 00000KT 10SM CLR 13/12 A2994 RMK AO2 SLP141 T01330117
Observed
Jun-27 @ 10:56 UTC
Visibility
10 SM
Flight Rules
VFR
Cloud Levels
  • Clear skies
Temperature
13°C / 55°F
Dewpoint
12°C / 54°F
Humidity
94%
Altimeter
29.94" Hg
Pressure
1013.92 hPa
Previous

2 hours ago

PAPG 270956Z AUTO 00000KT 10SM CLR 14/12 A2994 RMK AO2 SLP141 T01440117
Observed
Jun-27 @ 09:56 UTC
Visibility
10 SM
Flight Rules
VFR
Cloud Levels
  • Clear skies
Temperature
14°C / 57°F
Dewpoint
12°C / 54°F
Humidity
88%
Altimeter
29.94" Hg
Pressure
1013.92 hPa